createdAt,value
2022-12-31T00:03:25.968Z,562.00
2022-12-31T00:08:24.162Z,563.00
2022-12-31T00:13:23.549Z,564.00
2022-12-31T00:18:22.688Z,569.00
2022-12-31T00:23:21.989Z,572.00
2022-12-31T00:28:23.351Z,568.00
2022-12-31T00:33:20.667Z,557.00
2022-12-31T00:38:21.960Z,565.00
2022-12-31T00:43:19.262Z,562.00
2022-12-31T00:48:18.569Z,573.00
2022-12-31T00:53:18.868Z,565.00
2022-12-31T00:58:17.174Z,562.00
2022-12-31T01:03:16.552Z,566.00
2022-12-31T01:08:15.672Z,567.00
2022-12-31T01:13:15.967Z,582.00
2022-12-31T01:18:15.265Z,563.00
2022-12-31T01:23:14.556Z,569.00
2022-12-31T01:28:13.870Z,567.00
2022-12-31T01:33:13.159Z,566.00
2022-12-31T01:38:13.510Z,575.00
2022-12-31T01:43:10.619Z,573.00
2022-12-31T01:48:11.943Z,559.00
2022-12-31T01:53:09.281Z,567.00
2022-12-31T01:58:08.405Z,587.00
2022-12-31T02:03:09.805Z,580.00
2022-12-31T02:08:07.887Z,572.00
2022-12-31T02:13:07.208Z,585.00
2022-12-31T02:18:06.516Z,573.00
2022-12-31T02:23:04.998Z,579.00
2022-12-31T02:28:05.015Z,569.00
2022-12-31T02:33:03.328Z,560.00
2022-12-31T02:38:02.664Z,574.00
2022-12-31T02:43:03.828Z,588.00
2022-12-31T02:48:01.943Z,572.00
2022-12-31T02:53:00.269Z,580.00
2022-12-31T02:57:59.594Z,580.00
2022-12-31T03:02:58.933Z,573.00
2022-12-31T03:07:59.072Z,576.00
2022-12-31T03:12:57.377Z,581.00
2022-12-31T03:17:56.722Z,583.00
2022-12-31T03:22:57.026Z,574.00
2022-12-31T03:27:55.296Z,573.00
2022-12-31T03:32:54.620Z,582.00
2022-12-31T03:37:55.943Z,586.00
2022-12-31T03:42:55.225Z,578.00
2022-12-31T03:47:53.542Z,582.00
2022-12-31T03:52:52.877Z,578.00
2022-12-31T03:57:51.168Z,586.00
2022-12-31T04:02:50.520Z,577.00
2022-12-31T04:07:49.615Z,582.00
2022-12-31T04:12:49.938Z,592.00
2022-12-31T04:17:49.252Z,589.00
2022-12-31T04:22:48.555Z,586.00
2022-12-31T04:27:46.848Z,601.00
2022-12-31T04:32:46.153Z,593.00
2022-12-31T04:37:44.503Z,595.00
2022-12-31T04:42:44.600Z,586.00
2022-12-31T04:47:44.943Z,594.00
2022-12-31T04:52:43.290Z,581.00
2022-12-31T04:57:43.593Z,583.00
2022-12-31T05:02:42.077Z,597.00
2022-12-31T05:07:43.078Z,595.00
2022-12-31T05:12:40.383Z,591.00
2022-12-31T05:17:39.691Z,575.00
2022-12-31T05:22:39.014Z,597.00
2022-12-31T05:27:39.357Z,600.00
2022-12-31T05:32:37.672Z,595.00
2022-12-31T05:37:38.013Z,596.00
2022-12-31T05:42:38.446Z,580.00
2022-12-31T05:47:37.549Z,584.00
2022-12-31T05:52:34.829Z,588.00
2022-12-31T05:57:34.140Z,586.00
2022-12-31T06:02:33.491Z,588.00
2022-12-31T06:07:35.612Z,593.00
2022-12-31T06:12:31.916Z,589.00
2022-12-31T06:17:31.231Z,589.00
2022-12-31T06:22:30.541Z,591.00
2022-12-31T06:27:29.860Z,589.00
2022-12-31T06:32:31.172Z,593.00
2022-12-31T06:37:28.496Z,596.00
2022-12-31T06:42:27.848Z,589.00
2022-12-31T06:47:27.986Z,602.00
2022-12-31T06:52:26.355Z,589.00
2022-12-31T06:57:25.464Z,590.00
2022-12-31T07:02:24.970Z,585.00
2022-12-31T07:07:23.996Z,589.00
2022-12-31T07:12:23.308Z,574.00
2022-12-31T07:17:22.651Z,583.00
2022-12-31T07:22:22.991Z,587.00
2022-12-31T07:27:23.091Z,596.00
2022-12-31T07:32:21.387Z,591.00
2022-12-31T07:37:19.690Z,582.00
2022-12-31T07:42:18.828Z,593.00
2022-12-31T07:47:17.965Z,588.00
2022-12-31T07:52:18.280Z,610.00
2022-12-31T07:57:16.567Z,594.00
2022-12-31T08:02:16.027Z,590.00
2022-12-31T08:07:15.051Z,603.00
2022-12-31T08:12:16.213Z,605.00
2022-12-31T08:17:14.531Z,593.00
2022-12-31T08:22:12.662Z,613.00
2022-12-31T08:27:11.757Z,602.00
2022-12-31T08:32:11.094Z,614.00
2022-12-31T08:37:10.211Z,610.00
2022-12-31T08:42:11.562Z,609.00
2022-12-31T08:47:08.876Z,611.00
2022-12-31T08:52:09.433Z,609.00
2022-12-31T08:57:07.587Z,604.00
2022-12-31T09:02:07.782Z,601.00
2022-12-31T09:07:06.749Z,602.00
2022-12-31T09:12:05.067Z,614.00
2022-12-31T09:17:04.440Z,600.00
2022-12-31T09:22:04.557Z,615.00
2022-12-31T09:27:03.867Z,603.00
2022-12-31T09:32:03.217Z,629.00
2022-12-31T09:37:02.309Z,607.00
2022-12-31T09:42:00.621Z,596.00
2022-12-31T09:46:59.875Z,604.00
2022-12-31T09:51:59.174Z,607.00
2022-12-31T09:56:59.545Z,601.00
2022-12-31T10:01:58.088Z,591.00
2022-12-31T10:06:56.871Z,604.00
2022-12-31T10:11:57.139Z,604.00
2022-12-31T10:16:55.495Z,608.00
2022-12-31T10:21:54.607Z,595.00
2022-12-31T10:26:54.925Z,602.00
2022-12-31T10:31:53.227Z,602.00
2022-12-31T10:36:52.518Z,602.00
2022-12-31T10:41:51.843Z,600.00
2022-12-31T10:46:51.162Z,591.00
2022-12-31T10:51:50.493Z,603.00
2022-12-31T10:56:49.832Z,591.00
2022-12-31T11:01:50.088Z,602.00
2022-12-31T11:06:48.252Z,618.00
2022-12-31T11:11:47.525Z,601.00
2022-12-31T11:16:48.883Z,607.00
2022-12-31T11:21:45.971Z,598.00
2022-12-31T11:26:45.278Z,601.00
2022-12-31T11:31:44.595Z,596.00
2022-12-31T11:36:42.944Z,602.00
2022-12-31T11:41:43.084Z,608.00
2022-12-31T11:46:43.471Z,601.00
2022-12-31T11:51:48.449Z,595.00
2022-12-31T11:56:40.724Z,598.00
2022-12-31T12:01:41.017Z,626.00
2022-12-31T12:06:39.310Z,591.00
2022-12-31T12:11:38.623Z,595.00
2022-12-31T12:16:39.989Z,601.00
2022-12-31T12:21:39.131Z,615.00
2022-12-31T12:26:36.400Z,609.00
2022-12-31T12:31:35.731Z,609.00
2022-12-31T12:36:35.039Z,607.00
2022-12-31T12:41:36.354Z,601.00
2022-12-31T12:46:35.700Z,607.00
2022-12-31T12:51:32.804Z,588.00
2022-12-31T12:56:32.092Z,602.00
2022-12-31T13:01:31.498Z,601.00
2022-12-31T13:06:30.691Z,598.00
2022-12-31T13:11:29.806Z,586.00
2022-12-31T13:16:30.183Z,583.00
2022-12-31T13:21:28.344Z,581.00
2022-12-31T13:26:27.655Z,585.00
2022-12-31T13:31:26.992Z,569.00
2022-12-31T13:36:28.112Z,569.00
2022-12-31T13:41:25.423Z,559.00
2022-12-31T13:46:24.745Z,558.00
2022-12-31T13:51:25.116Z,561.00
2022-12-31T13:56:24.227Z,560.00
2022-12-31T14:01:22.445Z,568.00
2022-12-31T14:06:21.604Z,588.00
2022-12-31T14:11:20.916Z,565.00
2022-12-31T14:16:20.252Z,570.00
2022-12-31T14:21:20.579Z,566.00
2022-12-31T14:26:18.935Z,574.00
2022-12-31T14:31:18.140Z,563.00
2022-12-31T14:36:20.286Z,573.00
2022-12-31T14:41:16.605Z,562.00
2022-12-31T14:46:15.795Z,555.00
2022-12-31T14:51:14.985Z,557.00
2022-12-31T14:56:33.112Z,558.00
2022-12-31T15:01:13.412Z,548.00
2022-12-31T15:06:12.571Z,550.00
2022-12-31T15:11:11.722Z,553.00
2022-12-31T15:16:10.857Z,557.00
2022-12-31T15:21:10.184Z,562.00
2022-12-31T15:26:10.515Z,566.00
2022-12-31T15:31:11.754Z,569.00
2022-12-31T15:36:07.868Z,570.00
2022-12-31T15:41:08.027Z,571.00
2022-12-31T15:46:06.162Z,557.00
2022-12-31T15:51:04.328Z,562.00
2022-12-31T15:56:04.459Z,565.00
2022-12-31T16:01:04.808Z,553.00
2022-12-31T16:06:02.925Z,552.00
2022-12-31T16:11:03.301Z,566.00
2022-12-31T16:16:01.437Z,562.00
2022-12-31T16:21:01.751Z,560.00
2022-12-31T16:25:59.068Z,566.00
2022-12-31T16:30:59.224Z,581.00
2022-12-31T16:35:59.352Z,576.00
2022-12-31T16:40:57.691Z,578.00
2022-12-31T16:45:59.168Z,581.00
2022-12-31T16:50:56.312Z,566.00
2022-12-31T16:55:55.417Z,570.00
2022-12-31T17:00:54.739Z,564.00
2022-12-31T17:05:54.070Z,561.00
2022-12-31T17:10:56.555Z,580.00
2022-12-31T17:15:52.674Z,564.00
2022-12-31T17:20:51.956Z,578.00
2022-12-31T17:25:51.293Z,581.00
2022-12-31T17:30:50.591Z,572.00
2022-12-31T17:35:50.906Z,550.00
2022-12-31T17:40:51.374Z,578.00
2022-12-31T17:45:49.596Z,584.00
2022-12-31T17:50:47.689Z,583.00
2022-12-31T17:55:47.024Z,580.00
2022-12-31T18:00:47.163Z,587.00
2022-12-31T18:05:46.282Z,590.00
2022-12-31T18:10:44.613Z,598.00
2022-12-31T18:15:43.946Z,657.00
2022-12-31T18:20:43.062Z,698.00
